sensor_id;sensor_type;location;lat;lon;timestamp;pressure;altitude;pressure_sealevel;temperature;humidity
54924;BME280;40825;52.270;20.984;2022-10-16T00:00:08;100675.07;;;14.32;70.21
54924;BME280;40825;52.270;20.984;2022-10-16T00:00:43;100676.02;;;14.31;70.19
54924;BME280;40825;52.270;20.984;2022-10-16T00:01:25;100671.15;;;14.32;70.18
54924;BME280;40825;52.270;20.984;2022-10-16T00:01:48;100670.77;;;14.32;69.98
54924;BME280;40825;52.270;20.984;2022-10-16T00:02:10;100672.55;;;14.32;70.20
54924;BME280;40825;52.270;20.984;2022-10-16T00:02:34;100674.48;;;14.32;70.03
54924;BME280;40825;52.270;20.984;2022-10-16T00:02:56;100674.53;;;14.32;69.96
54924;BME280;40825;52.270;20.984;2022-10-16T00:03:17;100675.20;;;14.32;69.84
54924;BME280;40825;52.270;20.984;2022-10-16T00:03:40;100674.70;;;14.32;70.00
54924;BME280;40825;52.270;20.984;2022-10-16T00:04:02;100672.01;;;14.32;69.94
54924;BME280;40825;52.270;20.984;2022-10-16T00:04:24;100671.84;;;14.32;69.92
54924;BME280;40825;52.270;20.984;2022-10-16T00:04:45;100669.36;;;14.32;69.94
54924;BME280;40825;52.270;20.984;2022-10-16T00:05:07;100673.20;;;14.32;69.83
54924;BME280;40825;52.270;20.984;2022-10-16T00:05:29;100673.58;;;14.32;69.94
54924;BME280;40825;52.270;20.984;2022-10-16T00:05:52;100671.71;;;14.33;69.97
54924;BME280;40825;52.270;20.984;2022-10-16T00:06:14;100674.45;;;14.32;70.26
54924;BME280;40825;52.270;20.984;2022-10-16T00:06:35;100672.05;;;14.33;70.99
54924;BME280;40825;52.270;20.984;2022-10-16T00:06:57;100675.23;;;14.33;71.37
54924;BME280;40825;52.270;20.984;2022-10-16T00:07:18;100670.98;;;14.33;70.67
54924;BME280;40825;52.270;20.984;2022-10-16T00:07:41;100669.20;;;14.33;70.47
54924;BME280;40825;52.270;20.984;2022-10-16T00:08:03;100670.80;;;14.33;70.11
54924;BME280;40825;52.270;20.984;2022-10-16T00:08:24;100677.80;;;14.33;70.18
54924;BME280;40825;52.270;20.984;2022-10-16T00:08:47;100674.44;;;14.32;70.62
54924;BME280;40825;52.270;20.984;2022-10-16T00:09:09;100676.22;;;14.33;70.41
54924;BME280;40825;52.270;20.984;2022-10-16T00:09:31;100676.27;;;14.32;70.24
54924;BME280;40825;52.270;20.984;2022-10-16T00:09:52;100675.15;;;14.32;70.61
54924;BME280;40825;52.270;20.984;2022-10-16T00:10:16;100675.07;;;14.32;70.68
54924;BME280;40825;52.270;20.984;2022-10-16T00:10:38;100676.42;;;14.32;70.68
54924;BME280;40825;52.270;20.984;2022-10-16T00:11:01;100676.88;;;14.33;70.70
54924;BME280;40825;52.270;20.984;2022-10-16T00:11:24;100674.57;;;14.33;70.68
54924;BME280;40825;52.270;20.984;2022-10-16T00:11:46;100676.02;;;14.33;70.39
54924;BME280;40825;52.270;20.984;2022-10-16T00:12:07;100677.34;;;14.32;70.63
54924;BME280;40825;52.270;20.984;2022-10-16T00:12:29;100676.96;;;14.32;70.78
54924;BME280;40825;52.270;20.984;2022-10-16T00:12:50;100676.05;;;14.32;70.50
54924;BME280;40825;52.270;20.984;2022-10-16T00:13:12;100675.31;;;14.33;70.65
54924;BME280;40825;52.270;20.984;2022-10-16T00:13:34;100669.40;;;14.33;70.84
54924;BME280;40825;52.270;20.984;2022-10-16T00:13:57;100667.88;;;14.32;70.85
54924;BME280;40825;52.270;20.984;2022-10-16T00:14:19;100670.89;;;14.32;70.77
54924;BME280;40825;52.270;20.984;2022-10-16T00:14:41;100670.32;;;14.32;70.60
54924;BME280;40825;52.270;20.984;2022-10-16T00:15:05;100669.61;;;14.32;70.39
54924;BME280;40825;52.270;20.984;2022-10-16T00:15:27;100667.67;;;14.32;70.39
54924;BME280;40825;52.270;20.984;2022-10-16T00:15:48;100666.27;;;14.32;70.39
54924;BME280;40825;52.270;20.984;2022-10-16T00:16:10;100667.63;;;14.33;70.47
54924;BME280;40825;52.270;20.984;2022-10-16T00:16:32;100664.94;;;14.32;70.35
54924;BME280;40825;52.270;20.984;2022-10-16T00:16:54;100666.13;;;14.33;71.24
54924;BME280;40825;52.270;20.984;2022-10-16T00:17:16;100666.63;;;14.33;70.97
54924;BME280;40825;52.270;20.984;2022-10-16T00:17:39;100666.39;;;14.34;70.74
54924;BME280;40825;52.270;20.984;2022-10-16T00:18:00;100663.73;;;14.33;70.63
54924;BME280;40825;52.270;20.984;2022-10-16T00:18:21;100664.77;;;14.34;70.67
54924;BME280;40825;52.270;20.984;2022-10-16T00:18:43;100667.17;;;14.33;70.61
54924;BME280;40825;52.270;20.984;2022-10-16T00:19:05;100667.96;;;14.34;70.56
54924;BME280;40825;52.270;20.984;2022-10-16T00:19:27;100670.10;;;14.34;70.67
54924;BME280;40825;52.270;20.984;2022-10-16T00:19:48;100666.02;;;14.34;70.85
54924;BME280;40825;52.270;20.984;2022-10-16T00:20:10;100668.16;;;14.34;70.89
54924;BME280;40825;52.270;20.984;2022-10-16T00:20:35;100668.65;;;14.34;70.64
54924;BME280;40825;52.270;20.984;2022-10-16T00:21:02;100668.66;;;14.34;70.49
54924;BME280;40825;52.270;20.984;2022-10-16T00:21:25;100666.34;;;14.34;70.64
54924;BME280;40825;52.270;20.984;2022-10-16T00:21:47;100667.25;;;14.34;70.58
54924;BME280;40825;52.270;20.984;2022-10-16T00:22:09;100666.88;;;14.34;70.44
54924;BME280;40825;52.270;20.984;2022-10-16T00:22:30;100668.29;;;14.34;70.44
54924;BME280;40825;52.270;20.984;2022-10-16T00:22:52;100664.61;;;14.35;70.41
54924;BME280;40825;52.270;20.984;2022-10-16T00:23:13;100668.38;;;14.35;70.45
54924;BME280;40825;52.270;20.984;2022-10-16T00:23:35;100667.58;;;14.35;70.61
54924;BME280;40825;52.270;20.984;2022-10-16T00:23:58;100666.85;;;14.36;70.45
54924;BME280;40825;52.270;20.984;2022-10-16T00:24:20;100663.09;;;14.36;70.50
54924;BME280;40825;52.270;20.984;2022-10-16T00:24:43;100666.10;;;14.36;70.47
54924;BME280;40825;52.270;20.984;2022-10-16T00:25:04;100666.71;;;14.37;70.52
54924;BME280;40825;52.270;20.984;2022-10-16T00:25:26;100670.06;;;14.37;70.50
54924;BME280;40825;52.270;20.984;2022-10-16T00:25:54;100666.67;;;14.37;70.80
54924;BME280;40825;52.270;20.984;2022-10-16T00:26:17;100666.30;;;14.37;70.68
54924;BME280;40825;52.270;20.984;2022-10-16T00:26:39;100664.77;;;14.36;70.54
54924;BME280;40825;52.270;20.984;2022-10-16T00:27:01;100663.23;;;14.37;70.65
54924;BME280;40825;52.270;20.984;2022-10-16T00:27:23;100664.92;;;14.37;70.97
54924;BME280;40825;52.270;20.984;2022-10-16T00:27:44;100669.81;;;14.37;70.97
54924;BME280;40825;52.270;20.984;2022-10-16T00:28:06;100667.67;;;14.38;70.68
54924;BME280;40825;52.270;20.984;2022-10-16T00:28:27;100668.86;;;14.38;70.59
54924;BME280;40825;52.270;20.984;2022-10-16T00:28:49;100667.86;;;14.39;70.72
54924;BME280;40825;52.270;20.984;2022-10-16T00:29:12;100670.39;;;14.38;70.91
54924;BME280;40825;52.270;20.984;2022-10-16T00:29:33;100672.33;;;14.39;70.71
54924;BME280;40825;52.270;20.984;2022-10-16T00:29:56;100672.33;;;14.39;70.60
54924;BME280;40825;52.270;20.984;2022-10-16T00:30:17;100672.87;;;14.39;70.80
54924;BME280;40825;52.270;20.984;2022-10-16T00:30:39;100671.58;;;14.39;70.72
54924;BME280;40825;52.270;20.984;2022-10-16T00:31:05;100672.66;;;14.39;70.73
54924;BME280;40825;52.270;20.984;2022-10-16T00:31:27;100669.23;;;14.39;70.75
54924;BME280;40825;52.270;20.984;2022-10-16T00:31:49;100671.92;;;14.39;70.76
54924;BME280;40825;52.270;20.984;2022-10-16T00:32:10;100671.42;;;14.39;70.81
54924;BME280;40825;52.270;20.984;2022-10-16T00:32:32;100674.77;;;14.39;70.89
54924;BME280;40825;52.270;20.984;2022-10-16T00:32:53;100671.59;;;14.39;70.67
54924;BME280;40825;52.270;20.984;2022-10-16T00:33:15;100671.91;;;14.39;70.55
54924;BME280;40825;52.270;20.984;2022-10-16T00:33:37;100671.95;;;14.39;70.61
54924;BME280;40825;52.270;20.984;2022-10-16T00:34:00;100671.17;;;14.39;70.85
54924;BME280;40825;52.270;20.984;2022-10-16T00:34:23;100672.16;;;14.40;70.75
54924;BME280;40825;52.270;20.984;2022-10-16T00:34:44;100674.35;;;14.39;70.68
54924;BME280;40825;52.270;20.984;2022-10-16T00:35:06;100678.27;;;14.40;70.61
54924;BME280;40825;52.270;20.984;2022-10-16T00:35:30;100677.48;;;14.40;70.52
54924;BME280;40825;52.270;20.984;2022-10-16T00:35:52;100675.34;;;14.40;70.48
54924;BME280;40825;52.270;20.984;2022-10-16T00:36:14;100676.21;;;14.40;70.65
54924;BME280;40825;52.270;20.984;2022-10-16T00:36:36;100675.79;;;14.41;70.48
54924;BME280;40825;52.270;20.984;2022-10-16T00:36:57;100673.28;;;14.41;70.49
54924;BME280;40825;52.270;20.984;2022-10-16T00:37:20;100675.26;;;14.41;70.66
54924;BME280;40825;52.270;20.984;2022-10-16T00:37:42;100675.42;;;14.41;70.76
54924;BME280;40825;52.270;20.984;2022-10-16T00:38:03;100676.33;;;14.41;70.89
54924;BME280;40825;52.270;20.984;2022-10-16T00:38:25;100676.50;;;14.41;70.98
54924;BME280;40825;52.270;20.984;2022-10-16T00:38:47;100675.30;;;14.41;70.82
54924;BME280;40825;52.270;20.984;2022-10-16T00:39:10;100675.88;;;14.40;70.66
54924;BME280;40825;52.270;20.984;2022-10-16T00:39:33;100678.11;;;14.41;70.66
54924;BME280;40825;52.270;20.984;2022-10-16T00:39:54;100678.36;;;14.40;70.60
54924;BME280;40825;52.270;20.984;2022-10-16T00:40:17;100677.61;;;14.41;70.65
54924;BME280;40825;52.270;20.984;2022-10-16T00:40:38;100676.20;;;14.40;70.53
54924;BME280;40825;52.270;20.984;2022-10-16T00:41:00;100678.69;;;14.41;70.49
54924;BME280;40825;52.270;20.984;2022-10-16T00:41:22;100677.45;;;14.40;70.52
54924;BME280;40825;52.270;20.984;2022-10-16T00:41:44;100678.89;;;14.40;70.44
54924;BME280;40825;52.270;20.984;2022-10-16T00:42:10;100678.52;;;14.40;70.68
54924;BME280;40825;52.270;20.984;2022-10-16T00:42:35;100683.56;;;14.40;70.88
54924;BME280;40825;52.270;20.984;2022-10-16T00:42:57;100681.01;;;14.41;70.88
54924;BME280;40825;52.270;20.984;2022-10-16T00:44:00;100680.34;;;14.40;70.56
54924;BME280;40825;52.270;20.984;2022-10-16T00:45:04;100680.05;;;14.41;70.45
54924;BME280;40825;52.270;20.984;2022-10-16T00:45:26;100679.34;;;14.41;70.61
54924;BME280;40825;52.270;20.984;2022-10-16T00:45:48;100673.80;;;14.41;70.62
54924;BME280;40825;52.270;20.984;2022-10-16T00:46:51;100681.45;;;14.41;70.73
54924;BME280;40825;52.270;20.984;2022-10-16T00:46:55;100676.82;;;14.41;70.74
54924;BME280;40825;52.270;20.984;2022-10-16T00:47:15;100678.69;;;14.40;70.85
54924;BME280;40825;52.270;20.984;2022-10-16T00:47:40;100678.31;;;14.41;70.52
54924;BME280;40825;52.270;20.984;2022-10-16T00:48:03;100676.20;;;14.40;70.46
54924;BME280;40825;52.270;20.984;2022-10-16T00:48:24;100679.23;;;14.41;70.50
54924;BME280;40825;52.270;20.984;2022-10-16T00:49:15;100681.42;;;14.40;70.61
54924;BME280;40825;52.270;20.984;2022-10-16T00:49:37;100679.64;;;14.40;70.60
54924;BME280;40825;52.270;20.984;2022-10-16T00:50:07;100681.88;;;14.41;70.56
54924;BME280;40825;52.270;20.984;2022-10-16T00:50:33;100682.41;;;14.41;70.47
54924;BME280;40825;52.270;20.984;2022-10-16T00:50:59;100690.46;;;14.41;70.63
54924;BME280;40825;52.270;20.984;2022-10-16T00:51:23;100684.22;;;14.41;70.64
54924;BME280;40825;52.270;20.984;2022-10-16T00:51:46;100686.49;;;14.41;70.52
54924;BME280;40825;52.270;20.984;2022-10-16T00:52:08;100684.84;;;14.41;70.45
54924;BME280;40825;52.270;20.984;2022-10-16T00:52:31;100681.70;;;14.41;70.54
54924;BME280;40825;52.270;20.984;2022-10-16T00:52:52;100686.59;;;14.40;70.56
54924;BME280;40825;52.270;20.984;2022-10-16T00:53:14;100690.14;;;14.41;70.60
54924;BME280;40825;52.270;20.984;2022-10-16T00:53:37;100688.73;;;14.40;70.68
54924;BME280;40825;52.270;20.984;2022-10-16T00:53:59;100687.28;;;14.41;70.52
54924;BME280;40825;52.270;20.984;2022-10-16T00:54:27;100684.27;;;14.40;70.56
54924;BME280;40825;52.270;20.984;2022-10-16T00:54:49;100687.35;;;14.41;70.54
54924;BME280;40825;52.270;20.984;2022-10-16T00:55:11;100686.05;;;14.40;70.52
54924;BME280;40825;52.270;20.984;2022-10-16T00:55:33;100684.23;;;14.41;70.55
54924;BME280;40825;52.270;20.984;2022-10-16T00:55:54;100684.55;;;14.41;70.76
54924;BME280;40825;52.270;20.984;2022-10-16T00:56:16;100682.23;;;14.41;70.51
54924;BME280;40825;52.270;20.984;2022-10-16T00:56:38;100684.02;;;14.41;70.68
54924;BME280;40825;52.270;20.984;2022-10-16T00:57:01;100681.86;;;14.41;70.54
54924;BME280;40825;52.270;20.984;2022-10-16T00:57:24;100685.48;;;14.41;70.54
54924;BME280;40825;52.270;20.984;2022-10-16T00:57:46;100687.06;;;14.41;70.65
54924;BME280;40825;52.270;20.984;2022-10-16T00:58:09;100690.38;;;14.40;70.63
54924;BME280;40825;52.270;20.984;2022-10-16T00:58:32;100686.13;;;14.40;70.57
54924;BME280;40825;52.270;20.984;2022-10-16T00:58:54;100689.56;;;14.40;70.44
54924;BME280;40825;52.270;20.984;2022-10-16T00:59:16;100688.16;;;14.39;70.57
54924;BME280;40825;52.270;20.984;2022-10-16T00:59:39;100689.06;;;14.39;70.61
54924;BME280;40825;52.270;20.984;2022-10-16T01:00:28;100688.85;;;14.41;70.53
54924;BME280;40825;52.270;20.984;2022-10-16T01:00:49;100692.37;;;14.39;70.48
54924;BME280;40825;52.270;20.984;2022-10-16T01:01:11;100694.48;;;14.39;70.52
54924;BME280;40825;52.270;20.984;2022-10-16T01:01:33;100690.75;;;14.39;70.52
54924;BME280;40825;52.270;20.984;2022-10-16T01:01:55;100690.21;;;14.39;70.55
54924;BME280;40825;52.270;20.984;2022-10-16T01:02:18;100689.85;;;14.39;70.50
54924;BME280;40825;52.270;20.984;2022-10-16T01:02:39;100694.11;;;14.39;70.57
54924;BME280;40825;52.270;20.984;2022-10-16T01:03:02;100692.41;;;14.39;70.52
54924;BME280;40825;52.270;20.984;2022-10-16T01:03:26;100693.85;;;14.38;70.48
54924;BME280;40825;52.270;20.984;2022-10-16T01:03:48;100692.78;;;14.38;70.47
54924;BME280;40825;52.270;20.984;2022-10-16T01:04:10;100691.73;;;14.38;70.38
54924;BME280;40825;52.270;20.984;2022-10-16T01:04:34;100691.91;;;14.38;70.39
54924;BME280;40825;52.270;20.984;2022-10-16T01:04:56;100691.63;;;14.38;70.39
54924;BME280;40825;52.270;20.984;2022-10-16T01:05:18;100694.19;;;14.37;70.49
54924;BME280;40825;52.270;20.984;2022-10-16T01:05:44;100694.36;;;14.37;70.53
54924;BME280;40825;52.270;20.984;2022-10-16T01:08:28;100703.61;;;14.36;70.47
54924;BME280;40825;52.270;20.984;2022-10-16T01:09:00;100704.02;;;14.36;70.43
54924;BME280;40825;52.270;20.984;2022-10-16T01:09:35;100702.95;;;14.36;70.57
54924;BME280;40825;52.270;20.984;2022-10-16T01:10:38;100707.54;;;14.37;70.49
54924;BME280;40825;52.270;20.984;2022-10-16T01:11:57;100707.08;;;14.37;70.57
54924;BME280;40825;52.270;20.984;2022-10-16T01:13:09;100703.58;;;14.37;70.40
54924;BME280;40825;52.270;20.984;2022-10-16T01:13:35;100704.27;;;14.37;70.36
54924;BME280;40825;52.270;20.984;2022-10-16T01:14:00;100704.48;;;14.37;70.48
54924;BME280;40825;52.270;20.984;2022-10-16T01:14:53;100706.64;;;14.35;70.56
54924;BME280;40825;52.270;20.984;2022-10-16T01:15:41;100705.52;;;14.34;70.50
54924;BME280;40825;52.270;20.984;2022-10-16T01:16:08;100710.31;;;14.35;70.51
54924;BME280;40825;52.270;20.984;2022-10-16T01:16:34;100705.06;;;14.34;70.54
54924;BME280;40825;52.270;20.984;2022-10-16T01:17:04;100706.26;;;14.34;70.50
54924;BME280;40825;52.270;20.984;2022-10-16T01:17:39;100708.45;;;14.34;70.83
54924;BME280;40825;52.270;20.984;2022-10-16T01:18:07;100710.42;;;14.34;70.74
54924;BME280;40825;52.270;20.984;2022-10-16T01:18:32;100708.32;;;14.33;70.67
54924;BME280;40825;52.270;20.984;2022-10-16T01:19:04;100710.51;;;14.33;70.80
54924;BME280;40825;52.270;20.984;2022-10-16T01:21:09;100707.92;;;14.31;70.72
54924;BME280;40825;52.270;20.984;2022-10-16T01:21:33;100702.84;;;14.30;70.93
54924;BME280;40825;52.270;20.984;2022-10-16T01:21:56;100702.46;;;14.30;71.04
54924;BME280;40825;52.270;20.984;2022-10-16T01:22:19;100704.52;;;14.29;70.86
54924;BME280;40825;52.270;20.984;2022-10-16T01:22:55;100702.75;;;14.29;70.79
54924;BME280;40825;52.270;20.984;2022-10-16T01:24:36;100699.41;;;14.27;70.93
54924;BME280;40825;52.270;20.984;2022-10-16T01:25:00;100701.10;;;14.27;70.86
54924;BME280;40825;52.270;20.984;2022-10-16T01:27:27;100702.42;;;14.25;70.88
54924;BME280;40825;52.270;20.984;2022-10-16T01:27:52;100704.81;;;14.24;70.95
54924;BME280;40825;52.270;20.984;2022-10-16T01:28:15;100703.66;;;14.24;70.75
54924;BME280;40825;52.270;20.984;2022-10-16T01:29:55;100701.02;;;14.23;70.87
54924;BME280;40825;52.270;20.984;2022-10-16T01:30:21;100704.91;;;14.23;70.94
54924;BME280;40825;52.270;20.984;2022-10-16T01:30:44;100704.34;;;14.23;70.89
54924;BME280;40825;52.270;20.984;2022-10-16T01:31:06;100703.80;;;14.23;70.99
54924;BME280;40825;52.270;20.984;2022-10-16T01:31:31;100708.14;;;14.23;70.87
54924;BME280;40825;52.270;20.984;2022-10-16T01:31:55;100709.41;;;14.22;71.01
54924;BME280;40825;52.270;20.984;2022-10-16T01:33:05;100708.73;;;14.22;70.90
54924;BME280;40825;52.270;20.984;2022-10-16T01:33:32;100710.11;;;14.21;70.91
54924;BME280;40825;52.270;20.984;2022-10-16T01:34:00;100707.23;;;14.21;70.92
54924;BME280;40825;52.270;20.984;2022-10-16T01:34:35;100709.20;;;14.21;70.93
54924;BME280;40825;52.270;20.984;2022-10-16T01:34:59;100711.55;;;14.21;70.92
54924;BME280;40825;52.270;20.984;2022-10-16T01:35:23;100711.02;;;14.21;71.18
54924;BME280;40825;52.270;20.984;2022-10-16T01:35:47;100711.07;;;14.21;71.13
54924;BME280;40825;52.270;20.984;2022-10-16T01:36:14;100710.70;;;14.21;70.90
54924;BME280;40825;52.270;20.984;2022-10-16T01:37:25;100714.62;;;14.21;71.10
54924;BME280;40825;52.270;20.984;2022-10-16T01:38:39;100715.52;;;14.21;70.88
54924;BME280;40825;52.270;20.984;2022-10-16T01:38:43;100715.86;;;14.21;70.91
54924;BME280;40825;52.270;20.984;2022-10-16T01:39:06;100720.48;;;14.21;70.77
54924;BME280;40825;52.270;20.984;2022-10-16T01:39:30;100716.52;;;14.21;70.82
54924;BME280;40825;52.270;20.984;2022-10-16T01:39:53;100717.58;;;14.22;70.91
54924;BME280;40825;52.270;20.984;2022-10-16T01:40:19;100715.93;;;14.22;70.83
54924;BME280;40825;52.270;20.984;2022-10-16T01:40:43;100716.59;;;14.22;71.01
54924;BME280;40825;52.270;20.984;2022-10-16T01:41:11;100719.33;;;14.22;71.09
54924;BME280;40825;52.270;20.984;2022-10-16T01:41:39;100718.73;;;14.22;71.34
54924;BME280;40825;52.270;20.984;2022-10-16T01:42:55;100719.28;;;14.21;71.30
54924;BME280;40825;52.270;20.984;2022-10-16T01:43:19;100718.80;;;14.20;71.25
54924;BME280;40825;52.270;20.984;2022-10-16T01:43:57;100717.50;;;14.21;71.11
54924;BME280;40825;52.270;20.984;2022-10-16T01:44:24;100717.92;;;14.20;71.08
54924;BME280;40825;52.270;20.984;2022-10-16T01:44:48;100722.73;;;14.21;71.01
54924;BME280;40825;52.270;20.984;2022-10-16T01:45:11;100721.73;;;14.20;71.12
54924;BME280;40825;52.270;20.984;2022-10-16T01:45:35;100718.17;;;14.20;71.16
54924;BME280;40825;52.270;20.984;2022-10-16T01:45:59;100720.12;;;14.20;71.20
54924;BME280;40825;52.270;20.984;2022-10-16T01:46:21;100721.77;;;14.20;71.58
54924;BME280;40825;52.270;20.984;2022-10-16T01:46:44;100723.96;;;14.19;71.44
54924;BME280;40825;52.270;20.984;2022-10-16T01:47:08;100726.31;;;14.19;71.31
54924;BME280;40825;52.270;20.984;2022-10-16T01:47:31;100723.87;;;14.19;71.36
54924;BME280;40825;52.270;20.984;2022-10-16T01:47:53;100718.73;;;14.18;71.34
54924;BME280;40825;52.270;20.984;2022-10-16T01:48:18;100717.30;;;14.18;71.23
54924;BME280;40825;52.270;20.984;2022-10-16T01:48:40;100721.02;;;14.17;71.09
54924;BME280;40825;52.270;20.984;2022-10-16T01:49:02;100720.92;;;14.18;71.14
54924;BME280;40825;52.270;20.984;2022-10-16T01:49:26;100724.11;;;14.18;71.19
54924;BME280;40825;52.270;20.984;2022-10-16T01:49:51;100724.85;;;14.18;71.43
54924;BME280;40825;52.270;20.984;2022-10-16T01:50:14;100723.78;;;14.18;71.36
54924;BME280;40825;52.270;20.984;2022-10-16T01:50:37;100720.39;;;14.18;71.16
54924;BME280;40825;52.270;20.984;2022-10-16T01:51:03;100719.11;;;14.17;71.26
54924;BME280;40825;52.270;20.984;2022-10-16T01:51:26;100721.42;;;14.17;71.23
54924;BME280;40825;52.270;20.984;2022-10-16T01:51:52;100718.46;;;14.16;71.42
54924;BME280;40825;52.270;20.984;2022-10-16T01:52:17;100715.81;;;14.16;71.71
54924;BME280;40825;52.270;20.984;2022-10-16T01:52:41;100715.44;;;14.16;71.32
54924;BME280;40825;52.270;20.984;2022-10-16T01:53:04;100716.39;;;14.16;71.40
54924;BME280;40825;52.270;20.984;2022-10-16T01:53:26;100718.54;;;14.16;71.52
54924;BME280;40825;52.270;20.984;2022-10-16T01:53:49;100714.82;;;14.15;71.57
54924;BME280;40825;52.270;20.984;2022-10-16T01:54:13;100716.14;;;14.15;71.61
54924;BME280;40825;52.270;20.984;2022-10-16T01:54:36;100718.75;;;14.14;71.53
54924;BME280;40825;52.270;20.984;2022-10-16T01:54:59;100716.19;;;14.14;71.47
54924;BME280;40825;52.270;20.984;2022-10-16T01:55:22;100712.63;;;14.14;71.51
54924;BME280;40825;52.270;20.984;2022-10-16T01:55:46;100713.75;;;14.14;71.77
54924;BME280;40825;52.270;20.984;2022-10-16T01:56:09;100713.09;;;14.14;71.90
54924;BME280;40825;52.270;20.984;2022-10-16T01:56:33;100712.42;;;14.13;71.75
54924;BME280;40825;52.270;20.984;2022-10-16T01:56:55;100710.85;;;14.13;71.48
54924;BME280;40825;52.270;20.984;2022-10-16T01:57:17;100708.42;;;14.12;71.62
54924;BME280;40825;52.270;20.984;2022-10-16T01:57:41;100708.52;;;14.12;71.62
54924;BME280;40825;52.270;20.984;2022-10-16T01:58:06;100704.39;;;14.11;71.67
54924;BME280;40825;52.270;20.984;2022-10-16T01:58:30;100703.79;;;14.10;72.03
54924;BME280;40825;52.270;20.984;2022-10-16T01:58:57;100705.23;;;14.09;71.71
54924;BME280;40825;52.270;20.984;2022-10-16T01:59:20;100706.23;;;14.09;72.04
54924;BME280;40825;52.270;20.984;2022-10-16T01:59:44;100702.73;;;14.08;72.18
54924;BME280;40825;52.270;20.984;2022-10-16T02:00:09;100704.21;;;14.08;71.79
54924;BME280;40825;52.270;20.984;2022-10-16T02:00:31;100705.95;;;14.07;72.01
54924;BME280;40825;52.270;20.984;2022-10-16T02:00:53;100706.41;;;14.06;72.14
54924;BME280;40825;52.270;20.984;2022-10-16T02:01:15;100704.80;;;14.06;72.25
54924;BME280;40825;52.270;20.984;2022-10-16T02:01:39;100706.27;;;14.06;71.85
54924;BME280;40825;52.270;20.984;2022-10-16T02:02:06;100706.86;;;14.06;71.64
54924;BME280;40825;52.270;20.984;2022-10-16T02:02:29;100706.06;;;14.05;72.22
54924;BME280;40825;52.270;20.984;2022-10-16T02:02:52;100705.99;;;14.03;71.83
54924;BME280;40825;52.270;20.984;2022-10-16T02:03:15;100707.73;;;14.04;71.94
54924;BME280;40825;52.270;20.984;2022-10-16T02:03:37;100708.63;;;14.04;71.91
54924;BME280;40825;52.270;20.984;2022-10-16T02:04:04;100706.40;;;14.03;72.38
54924;BME280;40825;52.270;20.984;2022-10-16T02:04:30;100707.42;;;14.02;71.92
54924;BME280;40825;52.270;20.984;2022-10-16T02:04:54;100709.17;;;14.02;72.28
54924;BME280;40825;52.270;20.984;2022-10-16T02:05:52;100711.64;;;14.01;72.21
54924;BME280;40825;52.270;20.984;2022-10-16T02:06:15;100712.71;;;14.01;72.02
54924;BME280;40825;52.270;20.984;2022-10-16T02:06:36;100713.30;;;14.01;72.51
54924;BME280;40825;52.270;20.984;2022-10-16T02:06:58;100713.00;;;14.00;72.52
54924;BME280;40825;52.270;20.984;2022-10-16T02:07:20;100711.18;;;14.01;72.73
54924;BME280;40825;52.270;20.984;2022-10-16T02:07:41;100715.31;;;14.01;72.55
54924;BME280;40825;52.270;20.984;2022-10-16T02:08:03;100713.91;;;14.00;72.26
54924;BME280;40825;52.270;20.984;2022-10-16T02:08:26;100716.09;;;14.00;72.49
54924;BME280;40825;52.270;20.984;2022-10-16T02:08:49;100712.80;;;14.00;72.32
54924;BME280;40825;52.270;20.984;2022-10-16T02:09:12;100712.67;;;13.99;72.53
54924;BME280;40825;52.270;20.984;2022-10-16T02:09:34;100715.48;;;13.98;72.66
54924;BME280;40825;52.270;20.984;2022-10-16T02:09:56;100713.49;;;13.98;72.30
54924;BME280;40825;52.270;20.984;2022-10-16T02:10:18;100713.05;;;13.98;72.00
54924;BME280;40825;52.270;20.984;2022-10-16T02:10:40;100714.00;;;13.97;71.97
54924;BME280;40825;52.270;20.984;2022-10-16T02:11:02;100712.23;;;13.97;72.67
54924;BME280;40825;52.270;20.984;2022-10-16T02:11:24;100715.94;;;13.97;72.51
54924;BME280;40825;52.270;20.984;2022-10-16T02:11:45;100714.04;;;13.97;72.28
54924;BME280;40825;52.270;20.984;2022-10-16T02:12:12;100712.10;;;13.97;72.15
54924;BME280;40825;52.270;20.984;2022-10-16T02:12:36;100713.46;;;13.97;72.17
54924;BME280;40825;52.270;20.984;2022-10-16T02:13:04;100711.15;;;13.97;72.08
54924;BME280;40825;52.270;20.984;2022-10-16T02:13:31;100710.23;;;13.97;72.33
54924;BME280;40825;52.270;20.984;2022-10-16T02:14:15;100709.58;;;13.97;72.27
54924;BME280;40825;52.270;20.984;2022-10-16T02:14:38;100706.93;;;13.97;71.96
54924;BME280;40825;52.270;20.984;2022-10-16T02:14:59;100708.27;;;13.96;72.46
54924;BME280;40825;52.270;20.984;2022-10-16T02:15:21;100705.49;;;13.95;72.07
54924;BME280;40825;52.270;20.984;2022-10-16T02:15:42;100707.30;;;13.95;72.20
54924;BME280;40825;52.270;20.984;2022-10-16T02:16:05;100705.00;;;13.95;72.22
54924;BME280;40825;52.270;20.984;2022-10-16T02:16:37;100703.97;;;13.95;72.27
54924;BME280;40825;52.270;20.984;2022-10-16T02:16:59;100706.23;;;13.95;72.20
54924;BME280;40825;52.270;20.984;2022-10-16T02:17:20;100706.81;;;13.95;72.92
54924;BME280;40825;52.270;20.984;2022-10-16T02:17:42;100707.98;;;13.94;72.88
54924;BME280;40825;52.270;20.984;2022-10-16T02:18:04;100702.44;;;13.94;72.25
54924;BME280;40825;52.270;20.984;2022-10-16T02:18:26;100705.70;;;13.94;72.83
54924;BME280;40825;52.270;20.984;2022-10-16T02:18:50;100707.13;;;13.94;72.22
54924;BME280;40825;52.270;20.984;2022-10-16T02:19:12;100707.96;;;13.93;72.25